sensor_id;sensor_type;location;lat;lon;timestamp;pressure;altitude;pressure_sealevel;temperature;humidity
75895;BME280;64573;50.328;15.014;2023-08-30T00:00:34;98099.91;;;13.40;100.00
75895;BME280;64573;50.328;15.014;2023-08-30T00:02:59;98115.66;;;13.43;100.00
75895;BME280;64573;50.328;15.014;2023-08-30T00:05:25;98123.31;;;13.39;100.00
75895;BME280;64573;50.328;15.014;2023-08-30T00:07:53;98121.53;;;13.33;100.00
75895;BME280;64573;50.328;15.014;2023-08-30T00:10:19;98120.31;;;13.29;100.00
75895;BME280;64573;50.328;15.014;2023-08-30T00:12:44;98119.88;;;13.32;100.00
75895;BME280;64573;50.328;15.014;2023-08-30T00:15:09;98110.97;;;13.32;100.00
75895;BME280;64573;50.328;15.014;2023-08-30T00:17:35;98111.34;;;13.35;100.00
75895;BME280;64573;50.328;15.014;2023-08-30T00:20:00;98116.75;;;13.35;100.00
75895;BME280;64573;50.328;15.014;2023-08-30T00:22:25;98113.47;;;13.33;100.00
75895;BME280;64573;50.328;15.014;2023-08-30T00:27:17;98103.09;;;13.30;100.00
75895;BME280;64573;50.328;15.014;2023-08-30T00:29:43;98097.31;;;13.33;100.00
75895;BME280;64573;50.328;15.014;2023-08-30T00:32:08;98096.47;;;13.33;100.00
75895;BME280;64573;50.328;15.014;2023-08-30T00:34:33;98081.75;;;13.35;100.00
75895;BME280;64573;50.328;15.014;2023-08-30T00:36:59;98080.53;;;13.31;100.00
75895;BME280;64573;50.328;15.014;2023-08-30T00:39:24;98081.56;;;13.30;100.00
75895;BME280;64573;50.328;15.014;2023-08-30T00:41:49;98082.16;;;13.32;100.00
75895;BME280;64573;50.328;15.014;2023-08-30T00:44:15;98085.75;;;13.26;100.00
75895;BME280;64573;50.328;15.014;2023-08-30T00:46:40;98085.53;;;13.28;100.00
75895;BME280;64573;50.328;15.014;2023-08-30T00:49:06;98080.81;;;13.23;100.00
75895;BME280;64573;50.328;15.014;2023-08-30T00:51:32;98085.97;;;13.24;100.00
75895;BME280;64573;50.328;15.014;2023-08-30T00:53:59;98079.97;;;13.22;100.00
75895;BME280;64573;50.328;15.014;2023-08-30T00:56:27;98083.91;;;13.27;100.00
75895;BME280;64573;50.328;15.014;2023-08-30T00:58:52;98072.50;;;13.24;100.00
75895;BME280;64573;50.328;15.014;2023-08-30T01:01:18;98064.88;;;13.21;100.00
75895;BME280;64573;50.328;15.014;2023-08-30T01:03:44;98070.69;;;13.18;100.00
75895;BME280;64573;50.328;15.014;2023-08-30T01:06:09;98074.75;;;13.28;100.00
75895;BME280;64573;50.328;15.014;2023-08-30T01:08:36;98071.19;;;13.34;100.00
75895;BME280;64573;50.328;15.014;2023-08-30T01:11:26;98067.00;;;13.38;100.00
75895;BME280;64573;50.328;15.014;2023-08-30T01:14:29;98060.63;;;13.32;100.00
75895;BME280;64573;50.328;15.014;2023-08-30T01:16:56;98052.34;;;13.34;100.00
75895;BME280;64573;50.328;15.014;2023-08-30T01:27:38;98073.16;;;13.45;100.00
75895;BME280;64573;50.328;15.014;2023-08-30T01:30:06;98071.13;;;13.40;100.00
75895;BME280;64573;50.328;15.014;2023-08-30T01:32:34;98071.34;;;13.39;100.00
75895;BME280;64573;50.328;15.014;2023-08-30T01:35:00;98084.59;;;13.40;100.00
75895;BME280;64573;50.328;15.014;2023-08-30T01:37:27;98083.00;;;13.33;100.00
75895;BME280;64573;50.328;15.014;2023-08-30T01:39:54;98088.59;;;13.31;100.00
75895;BME280;64573;50.328;15.014;2023-08-30T01:42:22;98082.84;;;13.28;100.00
75895;BME280;64573;50.328;15.014;2023-08-30T01:44:49;98073.94;;;13.27;100.00
75895;BME280;64573;50.328;15.014;2023-08-30T01:47:17;98080.38;;;13.26;100.00
75895;BME280;64573;50.328;15.014;2023-08-30T01:49:43;98070.44;;;13.27;100.00
75895;BME280;64573;50.328;15.014;2023-08-30T01:52:10;98053.28;;;13.21;100.00
75895;BME280;64573;50.328;15.014;2023-08-30T01:54:37;98063.81;;;13.22;100.00
75895;BME280;64573;50.328;15.014;2023-08-30T01:57:03;98068.41;;;13.15;100.00
75895;BME280;64573;50.328;15.014;2023-08-30T01:59:29;98065.28;;;13.18;100.00
75895;BME280;64573;50.328;15.014;2023-08-30T02:01:55;98069.81;;;13.18;100.00
75895;BME280;64573;50.328;15.014;2023-08-30T02:04:20;98066.75;;;13.14;100.00
75895;BME280;64573;50.328;15.014;2023-08-30T02:06:52;98072.31;;;13.19;100.00
75895;BME280;64573;50.328;15.014;2023-08-30T02:09:27;98072.31;;;13.19;100.00
75895;BME280;64573;50.328;15.014;2023-08-30T02:11:55;98071.06;;;13.22;100.00
75895;BME280;64573;50.328;15.014;2023-08-30T02:14:23;98078.56;;;13.20;100.00
75895;BME280;64573;50.328;15.014;2023-08-30T02:16:51;98081.44;;;13.18;100.00
75895;BME280;64573;50.328;15.014;2023-08-30T02:19:16;98070.47;;;13.20;100.00
75895;BME280;64573;50.328;15.014;2023-08-30T02:21:46;98071.09;;;13.15;100.00
75895;BME280;64573;50.328;15.014;2023-08-30T02:24:11;98063.63;;;13.17;100.00
75895;BME280;64573;50.328;15.014;2023-08-30T02:26:36;98065.25;;;13.25;100.00
75895;BME280;64573;50.328;15.014;2023-08-30T02:29:02;98059.25;;;13.23;100.00
75895;BME280;64573;50.328;15.014;2023-08-30T02:31:27;98054.03;;;13.28;100.00
75895;BME280;64573;50.328;15.014;2023-08-30T02:33:54;98046.78;;;13.29;100.00
75895;BME280;64573;50.328;15.014;2023-08-30T02:36:19;98050.75;;;13.26;100.00
75895;BME280;64573;50.328;15.014;2023-08-30T02:38:44;98044.75;;;13.24;100.00
75895;BME280;64573;50.328;15.014;2023-08-30T02:41:09;98048.50;;;13.23;100.00
75895;BME280;64573;50.328;15.014;2023-08-30T02:43:35;98048.25;;;13.24;100.00
75895;BME280;64573;50.328;15.014;2023-08-30T02:46:01;98044.97;;;13.22;100.00
75895;BME280;64573;50.328;15.014;2023-08-30T02:48:28;98048.75;;;13.15;100.00
75895;BME280;64573;50.328;15.014;2023-08-30T02:50:54;98054.94;;;13.15;100.00
75895;BME280;64573;50.328;15.014;2023-08-30T02:53:19;98053.66;;;13.18;100.00
75895;BME280;64573;50.328;15.014;2023-08-30T02:55:46;98058.22;;;13.17;100.00
75895;BME280;64573;50.328;15.014;2023-08-30T02:58:12;98060.94;;;13.17;100.00
75895;BME280;64573;50.328;15.014;2023-08-30T03:00:37;98060.09;;;13.17;100.00
75895;BME280;64573;50.328;15.014;2023-08-30T03:03:03;98069.81;;;13.18;100.00
75895;BME280;64573;50.328;15.014;2023-08-30T03:05:29;98061.16;;;13.16;100.00
75895;BME280;64573;50.328;15.014;2023-08-30T03:07:54;98059.50;;;13.15;100.00
75895;BME280;64573;50.328;15.014;2023-08-30T03:10:19;98068.19;;;13.17;100.00
75895;BME280;64573;50.328;15.014;2023-08-30T03:12:45;98070.88;;;13.17;100.00
75895;BME280;64573;50.328;15.014;2023-08-30T03:15:10;98064.88;;;13.15;100.00
75895;BME280;64573;50.328;15.014;2023-08-30T03:17:36;98067.34;;;13.16;100.00
75895;BME280;64573;50.328;15.014;2023-08-30T03:20:02;98060.59;;;13.07;100.00
75895;BME280;64573;50.328;15.014;2023-08-30T03:22:29;98063.66;;;13.11;100.00
75895;BME280;64573;50.328;15.014;2023-08-30T03:24:54;98067.47;;;13.03;100.00
75895;BME280;64573;50.328;15.014;2023-08-30T03:27:19;98072.31;;;13.19;100.00
75895;BME280;64573;50.328;15.014;2023-08-30T03:29:45;98061.94;;;13.23;100.00
75895;BME280;64573;50.328;15.014;2023-08-30T03:32:15;98069.81;;;13.24;100.00
75895;BME280;64573;50.328;15.014;2023-08-30T03:34:44;98069.63;;;13.19;100.00
75895;BME280;64573;50.328;15.014;2023-08-30T03:37:09;98066.13;;;13.19;100.00
75895;BME280;64573;50.328;15.014;2023-08-30T03:39:35;98071.69;;;13.17;100.00
75895;BME280;64573;50.328;15.014;2023-08-30T03:42:00;98074.38;;;13.17;100.00
75895;BME280;64573;50.328;15.014;2023-08-30T03:44:25;98071.69;;;13.17;100.00
75895;BME280;64573;50.328;15.014;2023-08-30T03:46:50;98072.75;;;13.16;100.00
75895;BME280;64573;50.328;15.014;2023-08-30T03:49:16;98078.94;;;13.17;100.00
75895;BME280;64573;50.328;15.014;2023-08-30T03:51:41;98081.03;;;13.21;100.00
75895;BME280;64573;50.328;15.014;2023-08-30T03:54:06;98082.28;;;13.19;100.00
75895;BME280;64573;50.328;15.014;2023-08-30T03:56:33;98081.88;;;13.15;100.00
75895;BME280;64573;50.328;15.014;2023-08-30T03:58:58;98079.41;;;13.14;100.00
75895;BME280;64573;50.328;15.014;2023-08-30T04:01:24;98078.81;;;13.12;100.00
75895;BME280;64573;50.328;15.014;2023-08-30T04:03:49;98072.38;;;13.13;100.00
75895;BME280;64573;50.328;15.014;2023-08-30T04:06:14;98081.63;;;13.17;100.00
75895;BME280;64573;50.328;15.014;2023-08-30T04:08:40;98091.59;;;13.16;100.00
75895;BME280;64573;50.328;15.014;2023-08-30T04:11:05;98095.91;;;13.17;100.00
75895;BME280;64573;50.328;15.014;2023-08-30T04:13:30;98097.41;;;13.20;100.00
75895;BME280;64573;50.328;15.014;2023-08-30T04:15:56;98090.75;;;13.16;100.00
75895;BME280;64573;50.328;15.014;2023-08-30T04:18:24;98092.03;;;13.13;100.00
75895;BME280;64573;50.328;15.014;2023-08-30T04:20:49;98087.25;;;13.15;100.00
75895;BME280;64573;50.328;15.014;2023-08-30T04:23:14;98092.63;;;13.15;100.00
75895;BME280;64573;50.328;15.014;2023-08-30T04:25:40;98086.44;;;13.15;100.00
75895;BME280;64573;50.328;15.014;2023-08-30T04:28:05;98090.34;;;13.19;100.00
75895;BME280;64573;50.328;15.014;2023-08-30T04:30:31;98096.56;;;13.19;100.00
75895;BME280;64573;50.328;15.014;2023-08-30T04:32:56;98094.84;;;13.25;100.00
75895;BME280;64573;50.328;15.014;2023-08-30T04:35:22;98094.50;;;13.21;100.00
75895;BME280;64573;50.328;15.014;2023-08-30T04:37:47;98097.34;;;13.27;100.00
75895;BME280;64573;50.328;15.014;2023-08-30T04:40:14;98092.34;;;13.30;100.00
75895;BME280;64573;50.328;15.014;2023-08-30T04:42:39;98092.56;;;13.29;100.00
75895;BME280;64573;50.328;15.014;2023-08-30T04:45:05;98092.50;;;13.35;100.00
75895;BME280;64573;50.328;15.014;2023-08-30T04:47:31;98092.47;;;13.42;100.00
75895;BME280;64573;50.328;15.014;2023-08-30T04:49:57;98088.47;;;13.44;100.00
75895;BME280;64573;50.328;15.014;2023-08-30T04:52:22;98099.66;;;13.48;100.00
75895;BME280;64573;50.328;15.014;2023-08-30T04:54:48;98104.66;;;13.44;100.00
75895;BME280;64573;50.328;15.014;2023-08-30T04:57:14;98098.66;;;13.42;100.00
75895;BME280;64573;50.328;15.014;2023-08-30T04:59:41;98104.06;;;13.42;100.00
75895;BME280;64573;50.328;15.014;2023-08-30T05:02:07;98108.38;;;13.43;100.00
75895;BME280;64573;50.328;15.014;2023-08-30T05:04:32;98103.16;;;13.48;100.00
75895;BME280;64573;50.328;15.014;2023-08-30T05:06:58;98101.13;;;13.44;100.00
75895;BME280;64573;50.328;15.014;2023-08-30T05:09:23;98098.59;;;13.49;100.00
75895;BME280;64573;50.328;15.014;2023-08-30T05:11:50;98097.09;;;13.53;100.00
75895;BME280;64573;50.328;15.014;2023-08-30T05:14:16;98102.78;;;13.45;100.00
75895;BME280;64573;50.328;15.014;2023-08-30T05:16:41;98101.31;;;13.49;100.00
75895;BME280;64573;50.328;15.014;2023-08-30T05:19:06;98111.44;;;13.47;100.00
75895;BME280;64573;50.328;15.014;2023-08-30T05:21:32;98113.94;;;13.48;100.00
75895;BME280;64573;50.328;15.014;2023-08-30T05:23:57;98109.44;;;13.42;100.00
75895;BME280;64573;50.328;15.014;2023-08-30T05:26:22;98104.59;;;13.51;100.00
75895;BME280;64573;50.328;15.014;2023-08-30T05:28:47;98105.88;;;13.48;100.00
75895;BME280;64573;50.328;15.014;2023-08-30T05:31:13;98103.59;;;13.45;100.00
75895;BME280;64573;50.328;15.014;2023-08-30T05:33:38;98102.13;;;13.49;100.00
75895;BME280;64573;50.328;15.014;2023-08-30T05:36:03;98110.56;;;13.53;100.00
75895;BME280;64573;50.328;15.014;2023-08-30T05:38:29;98100.69;;;13.47;100.00
75895;BME280;64573;50.328;15.014;2023-08-30T05:40:54;98103.53;;;13.52;100.00
75895;BME280;64573;50.328;15.014;2023-08-30T05:43:20;98106.22;;;13.52;100.00
75895;BME280;64573;50.328;15.014;2023-08-30T05:45:45;98110.56;;;13.53;100.00
75895;BME280;64573;50.328;15.014;2023-08-30T05:48:11;98102.88;;;13.57;100.00
75895;BME280;64573;50.328;15.014;2023-08-30T05:50:36;98106.63;;;13.56;100.00
75895;BME280;64573;50.328;15.014;2023-08-30T05:53:03;98102.75;;;13.70;100.00
75895;BME280;64573;50.328;15.014;2023-08-30T05:55:28;98106.72;;;13.67;100.00
75895;BME280;64573;50.328;15.014;2023-08-30T05:57:54;98109.09;;;13.75;100.00
75895;BME280;64573;50.328;15.014;2023-08-30T06:00:19;98111.16;;;13.80;100.00
75895;BME280;64573;50.328;15.014;2023-08-30T06:02:45;98108.69;;;13.78;100.00
75895;BME280;64573;50.328;15.014;2023-08-30T06:05:11;98108.28;;;13.75;100.00
75895;BME280;64573;50.328;15.014;2023-08-30T06:07:36;98114.66;;;13.80;100.00
75895;BME280;64573;50.328;15.014;2023-08-30T06:10:02;98113.84;;;13.80;100.00
75895;BME280;64573;50.328;15.014;2023-08-30T06:12:28;98116.31;;;13.82;100.00
75895;BME280;64573;50.328;15.014;2023-08-30T06:14:53;98114.59;;;13.87;100.00
75895;BME280;64573;50.328;15.014;2023-08-30T06:17:19;98116.69;;;13.85;100.00
75895;BME280;64573;50.328;15.014;2023-08-30T06:19:45;98116.84;;;13.90;100.00
75895;BME280;64573;50.328;15.014;2023-08-30T06:22:11;98121.72;;;14.00;100.00
75895;BME280;64573;50.328;15.014;2023-08-30T06:24:36;98122.38;;;13.95;100.00
75895;BME280;64573;50.328;15.014;2023-08-30T06:27:01;98123.84;;;13.98;100.00
75895;BME280;64573;50.328;15.014;2023-08-30T06:29:27;98117.22;;;14.12;100.00
75895;BME280;64573;50.328;15.014;2023-08-30T06:31:52;98107.25;;;13.94;100.00
75895;BME280;64573;50.328;15.014;2023-08-30T06:34:17;98116.69;;;14.03;100.00
75895;BME280;64573;50.328;15.014;2023-08-30T06:36:43;98118.56;;;14.03;100.00
75895;BME280;64573;50.328;15.014;2023-08-30T06:39:08;98121.19;;;14.10;100.00
75895;BME280;64573;50.328;15.014;2023-08-30T06:41:33;98118.28;;;14.11;100.00
75895;BME280;64573;50.328;15.014;2023-08-30T06:43:59;98126.34;;;14.11;100.00
75895;BME280;64573;50.328;15.014;2023-08-30T06:46:24;98125.09;;;14.14;100.00
75895;BME280;64573;50.328;15.014;2023-08-30T06:48:49;98119.25;;;14.17;100.00
75895;BME280;64573;50.328;15.014;2023-08-30T06:51:15;98118.19;;;14.18;100.00
75895;BME280;64573;50.328;15.014;2023-08-30T06:53:40;98124.22;;;14.20;100.00
75895;BME280;64573;50.328;15.014;2023-08-30T06:56:05;98121.72;;;14.18;100.00
75895;BME280;64573;50.328;15.014;2023-08-30T06:58:31;98115.66;;;14.23;100.00
75895;BME280;64573;50.328;15.014;2023-08-30T07:00:57;98120.50;;;14.32;100.00
75895;BME280;64573;50.328;15.014;2023-08-30T07:03:22;98111.38;;;14.33;100.00
75895;BME280;64573;50.328;15.014;2023-08-30T07:05:50;98104.56;;;14.31;100.00
75895;BME280;64573;50.328;15.014;2023-08-30T07:08:16;98120.31;;;14.34;100.00
75895;BME280;64573;50.328;15.014;2023-08-30T07:10:41;98113.03;;;14.53;100.00
75895;BME280;64573;50.328;15.014;2023-08-30T07:13:06;98111.38;;;14.52;100.00
75895;BME280;64573;50.328;15.014;2023-08-30T07:15:38;98111.84;;;14.49;100.00
75895;BME280;64573;50.328;15.014;2023-08-30T07:18:07;98117.00;;;14.32;100.00
75895;BME280;64573;50.328;15.014;2023-08-30T07:20:32;98110.41;;;14.46;100.00
75895;BME280;64573;50.328;15.014;2023-08-30T07:22:58;98113.63;;;14.55;100.00
75895;BME280;64573;50.328;15.014;2023-08-30T07:25:24;98118.03;;;14.31;100.00
75895;BME280;64573;50.328;15.014;2023-08-30T07:27:49;98115.56;;;14.48;100.00
75895;BME280;64573;50.328;15.014;2023-08-30T07:30:15;98111.09;;;14.42;100.00
75895;BME280;64573;50.328;15.014;2023-08-30T07:32:40;98109.97;;;14.49;100.00
75895;BME280;64573;50.328;15.014;2023-08-30T07:35:08;98116.84;;;14.64;100.00
75895;BME280;64573;50.328;15.014;2023-08-30T07:37:35;98111.56;;;14.69;100.00
75895;BME280;64573;50.328;15.014;2023-08-30T07:40:01;98112.03;;;14.66;100.00
75895;BME280;64573;50.328;15.014;2023-08-30T07:42:26;98116.78;;;14.82;100.00
75895;BME280;64573;50.328;15.014;2023-08-30T07:44:51;98112.66;;;15.09;100.00
75895;BME280;64573;50.328;15.014;2023-08-30T07:47:17;98110.63;;;15.05;100.00
75895;BME280;64573;50.328;15.014;2023-08-30T07:49:43;98116.16;;;15.10;100.00
75895;BME280;64573;50.328;15.014;2023-08-30T07:52:08;98128.72;;;15.04;100.00
75895;BME280;64573;50.328;15.014;2023-08-30T07:54:37;98126.66;;;14.88;100.00
75895;BME280;64573;50.328;15.014;2023-08-30T07:57:04;98137.00;;;14.91;100.00
75895;BME280;64573;50.328;15.014;2023-08-30T07:59:35;98144.28;;;14.90;100.00
75895;BME280;64573;50.328;15.014;2023-08-30T08:02:01;98145.56;;;14.88;100.00
75895;BME280;64573;50.328;15.014;2023-08-30T08:04:27;98145.09;;;14.91;100.00
75895;BME280;64573;50.328;15.014;2023-08-30T08:06:53;98147.28;;;14.82;100.00
75895;BME280;64573;50.328;15.014;2023-08-30T08:09:18;98144.50;;;14.89;100.00
75895;BME280;64573;50.328;15.014;2023-08-30T08:11:44;98142.88;;;14.88;100.00
75895;BME280;64573;50.328;15.014;2023-08-30T08:14:10;98154.16;;;14.97;100.00
75895;BME280;64573;50.328;15.014;2023-08-30T08:16:36;98151.84;;;15.00;100.00
75895;BME280;64573;50.328;15.014;2023-08-30T08:19:02;98153.88;;;15.16;100.00
75895;BME280;64573;50.328;15.014;2023-08-30T08:21:28;98156.69;;;15.10;100.00
75895;BME280;64573;50.328;15.014;2023-08-30T08:23:53;98150.22;;;15.11;100.00
75895;BME280;64573;50.328;15.014;2023-08-30T08:26:19;98143.75;;;15.12;100.00
75895;BME280;64573;50.328;15.014;2023-08-30T08:28:44;98140.63;;;15.15;100.00
75895;BME280;64573;50.328;15.014;2023-08-30T08:31:10;98148.97;;;15.25;100.00
75895;BME280;64573;50.328;15.014;2023-08-30T08:33:37;98155.66;;;15.23;100.00
75895;BME280;64573;50.328;15.014;2023-08-30T08:36:03;98172.78;;;15.16;100.00
75895;BME280;64573;50.328;15.014;2023-08-30T08:38:29;98175.91;;;15.02;100.00
75895;BME280;64573;50.328;15.014;2023-08-30T08:41:01;98178.03;;;15.00;100.00
75895;BME280;64573;50.328;15.014;2023-08-30T08:43:29;98187.56;;;14.84;100.00
75895;BME280;64573;50.328;15.014;2023-08-30T08:45:57;98189.59;;;14.70;100.00
75895;BME280;64573;50.328;15.014;2023-08-30T08:48:26;98178.38;;;14.73;100.00
75895;BME280;64573;50.328;15.014;2023-08-30T08:50:54;98181.88;;;14.92;100.00
75895;BME280;64573;50.328;15.014;2023-08-30T08:53:19;98183.72;;;14.92;100.00
75895;BME280;64573;50.328;15.014;2023-08-30T08:55:46;98177.50;;;14.91;100.00
75895;BME280;64573;50.328;15.014;2023-08-30T08:58:12;98185.16;;;14.94;100.00
75895;BME280;64573;50.328;15.014;2023-08-30T09:00:42;98177.13;;;14.87;100.00
75895;BME280;64573;50.328;15.014;2023-08-30T09:03:08;98177.41;;;14.98;100.00
75895;BME280;64573;50.328;15.014;2023-08-30T09:05:37;98173.34;;;15.07;100.00
75895;BME280;64573;50.328;15.014;2023-08-30T09:08:04;98170.03;;;15.05;100.00
75895;BME280;64573;50.328;15.014;2023-08-30T09:10:31;98172.19;;;15.14;100.00
75895;BME280;64573;50.328;15.014;2023-08-30T09:12:57;98168.19;;;15.17;100.00
75895;BME280;64573;50.328;15.014;2023-08-30T09:15:32;98176.13;;;15.42;100.00
75895;BME280;64573;50.328;15.014;2023-08-30T09:17:58;98176.13;;;15.42;100.00
75895;BME280;64573;50.328;15.014;2023-08-30T09:20:23;98186.78;;;15.25;100.00
75895;BME280;64573;50.328;15.014;2023-08-30T09:22:48;98181.81;;;15.10;100.00
75895;BME280;64573;50.328;15.014;2023-08-30T09:25:24;98185.50;;;14.98;100.00
75895;BME280;64573;50.328;15.014;2023-08-30T09:27:59;98193.59;;;14.98;100.00
75895;BME280;64573;50.328;15.014;2023-08-30T09:30:25;98203.22;;;14.39;100.00
75895;BME280;64573;50.328;15.014;2023-08-30T09:32:50;98221.00;;;14.03;100.00
75895;BME280;64573;50.328;15.014;2023-08-30T09:37:44;98226.09;;;13.68;100.00
75895;BME280;64573;50.328;15.014;2023-08-30T09:40:10;98227.22;;;13.53;100.00
75895;BME280;64573;50.328;15.014;2023-08-30T09:42:40;98226.41;;;13.53;100.00
75895;BME280;64573;50.328;15.014;2023-08-30T09:45:17;98229.88;;;13.60;100.00
75895;BME280;64573;50.328;15.014;2023-08-30T09:47:46;98229.78;;;13.73;100.00
75895;BME280;64573;50.328;15.014;2023-08-30T09:50:12;98223.78;;;13.96;100.00
75895;BME280;64573;50.328;15.014;2023-08-30T09:52:38;98225.69;;;14.14;100.00
75895;BME280;64573;50.328;15.014;2023-08-30T09:55:04;98205.09;;;14.38;100.00
75895;BME280;64573;50.328;15.014;2023-08-30T09:57:30;98196.91;;;14.51;100.00
75895;BME280;64573;50.328;15.014;2023-08-30T09:59:56;98195.16;;;14.75;100.00
75895;BME280;64573;50.328;15.014;2023-08-30T10:02:22;98185.72;;;14.96;100.00
75895;BME280;64573;50.328;15.014;2023-08-30T10:04:49;98186.81;;;15.49;100.00
75895;BME280;64573;50.328;15.014;2023-08-30T10:07:15;98186.63;;;15.50;100.00
75895;BME280;64573;50.328;15.014;2023-08-30T10:09:43;98180.19;;;15.63;100.00
75895;BME280;64573;50.328;15.014;2023-08-30T10:12:10;98168.38;;;15.45;100.00
75895;BME280;64573;50.328;15.014;2023-08-30T10:14:36;98180.59;;;15.48;100.00
75895;BME280;64573;50.328;15.014;2023-08-30T10:17:02;98172.78;;;15.16;100.00
75895;BME280;64573;50.328;15.014;2023-08-30T10:19:34;98188.16;;;14.86;100.00
75895;BME280;64573;50.328;15.014;2023-08-30T10:22:04;98198.75;;;14.69;100.00
75895;BME280;64573;50.328;15.014;2023-08-30T10:24:34;98197.09;;;14.68;100.00
75895;BME280;64573;50.328;15.014;2023-08-30T10:27:03;98200.16;;;14.90;100.00
75895;BME280;64573;50.328;15.014;2023-08-30T10:29:31;98191.97;;;14.97;100.00
75895;BME280;64573;50.328;15.014;2023-08-30T10:32:02;98188.81;;;15.00;100.00
75895;BME280;64573;50.328;15.014;2023-08-30T10:34:32;98186.28;;;15.16;100.00
75895;BME280;64573;50.328;15.014;2023-08-30T10:37:02;98181.13;;;15.15;100.00
75895;BME280;64573;50.328;15.014;2023-08-30T10:39:39;98177.28;;;15.23;100.00
75895;BME280;64573;50.328;15.014;2023-08-30T10:42:14;98183.13;;;15.20;100.00
75895;BME280;64573;50.328;15.014;2023-08-30T10:44:49;98171.06;;;15.34;100.00
75895;BME280;64573;50.328;15.014;2023-08-30T10:47:22;98170.28;;;15.45;100.00
75895;BME280;64573;50.328;15.014;2023-08-30T10:49:47;98176.31;;;15.70;100.00
75895;BME280;64573;50.328;15.014;2023-08-30T10:52:13;98158.00;;;15.73;100.00
75895;BME280;64573;50.328;15.014;2023-08-30T10:54:39;98176.34;;;15.82;100.00
75895;BME280;64573;50.328;15.014;2023-08-30T10:57:04;98177.16;;;16.06;100.00
75895;BME280;64573;50.328;15.014;2023-08-30T10:59:30;98164.31;;;16.25;100.00
75895;BME280;64573;50.328;15.014;2023-08-30T11:01:55;98166.56;;;16.16;100.00
75895;BME280;64573;50.328;15.014;2023-08-30T11:04:22;98158.13;;;16.01;100.00
75895;BME280;64573;50.328;15.014;2023-08-30T11:06:49;98160.09;;;16.17;100.00
75895;BME280;64573;50.328;15.014;2023-08-30T11:09:24;98157.03;;;16.37;100.00
75895;BME280;64573;50.328;15.014;2023-08-30T11:11:51;98149.22;;;16.41;100.00
75895;BME280;64573;50.328;15.014;2023-08-30T11:14:17;98155.41;;;16.65;100.00
75895;BME280;64573;50.328;15.014;2023-08-30T11:16:43;98155.91;;;16.73;100.00
75895;BME280;64573;50.328;15.014;2023-08-30T11:19:10;98136.22;;;16.66;100.00
75895;BME280;64573;50.328;15.014;2023-08-30T11:21:41;98145.16;;;16.78;100.00
75895;BME280;64573;50.328;15.014;2023-08-30T11:24:07;98124.88;;;17.09;100.00
75895;BME280;64573;50.328;15.014;2023-08-30T11:26:33;98133.38;;;17.47;100.00
75895;BME280;64573;50.328;15.014;2023-08-30T11:29:08;98130.38;;;17.15;100.00
75895;BME280;64573;50.328;15.014;2023-08-30T11:31:34;98125.47;;;17.62;100.00
75895;BME280;64573;50.328;15.014;2023-08-30T11:34:00;98120.72;;;17.86;100.00
75895;BME280;64573;50.328;15.014;2023-08-30T11:36:28;98118.97;;;17.97;100.00
75895;BME280;64573;50.328;15.014;2023-08-30T11:38:54;98123.34;;;17.81;100.00
75895;BME280;64573;50.328;15.014;2023-08-30T11:41:20;98122.28;;;17.31;100.00
75895;BME280;64573;50.328;15.014;2023-08-30T11:43:50;98118.81;;;17.70;100.00
75895;BME280;64573;50.328;15.014;2023-08-30T11:46:16;98112.13;;;18.11;100.00
75895;BME280;64573;50.328;15.014;2023-08-30T11:48:42;98120.28;;;18.11;100.00
75895;BME280;64573;50.328;15.014;2023-08-30T11:51:09;98123.75;;;18.28;100.00
75895;BME280;64573;50.328;15.014;2023-08-30T11:53:36;98118.06;;;18.30;100.00
75895;BME280;64573;50.328;15.014;2023-08-30T11:56:02;98119.41;;;18.71;100.00
75895;BME280;64573;50.328;15.014;2023-08-30T11:58:33;98126.91;;;18.42;100.00
75895;BME280;64573;50.328;15.014;2023-08-30T12:00:59;98117.19;;;18.68;100.00
75895;BME280;64573;50.328;15.014;2023-08-30T12:03:27;98120.28;;;18.77;100.00
75895;BME280;64573;50.328;15.014;2023-08-30T12:05:53;98121.09;;;18.55;100.00
75895;BME280;64573;50.328;15.014;2023-08-30T12:08:20;98118.13;;;18.57;100.00
75895;BME280;64573;50.328;15.014;2023-08-30T12:10:46;98117.56;;;18.77;100.00
75895;BME280;64573;50.328;15.014;2023-08-30T12:13:29;98122.47;;;18.58;100.00
75895;BME280;64573;50.328;15.014;2023-08-30T12:15:57;98115.97;;;18.59;100.00
75895;BME280;64573;50.328;15.014;2023-08-30T12:18:23;98112.78;;;18.89;100.00
75895;BME280;64573;50.328;15.014;2023-08-30T12:21:04;98119.59;;;19.13;100.00
75895;BME280;64573;50.328;15.014;2023-08-30T12:23:32;98110.59;;;18.86;100.00
75895;BME280;64573;50.328;15.014;2023-08-30T12:28:25;98119.66;;;18.69;100.00
75895;BME280;64573;50.328;15.014;2023-08-30T12:30:50;98112.63;;;18.52;100.00
75895;BME280;64573;50.328;15.014;2023-08-30T12:33:25;98112.97;;;18.77;100.00
75895;BME280;64573;50.328;15.014;2023-08-30T12:35:54;98119.72;;;18.74;100.00
75895;BME280;64573;50.328;15.014;2023-08-30T12:38:20;98121.56;;;18.47;100.00
75895;BME280;64573;50.328;15.014;2023-08-30T12:40:46;98118.00;;;18.68;100.00
75895;BME280;64573;50.328;15.014;2023-08-30T12:43:16;98119.59;;;18.42;100.00
75895;BME280;64573;50.328;15.014;2023-08-30T12:45:43;98109.41;;;18.55;100.00
75895;BME280;64573;50.328;15.014;2023-08-30T12:48:10;98116.38;;;18.67;100.00
75895;BME280;64573;50.328;15.014;2023-08-30T12:50:36;98110.41;;;18.92;100.00
75895;BME280;64573;50.328;15.014;2023-08-30T12:53:03;98110.28;;;19.09;100.00